createdAt,value
2019-05-25T00:00:07.229Z,67.54
2019-05-25T00:02:38.801Z,67.77
2019-05-25T00:05:10.684Z,67.42
2019-05-25T00:07:42.128Z,67.96
2019-05-25T00:10:14.200Z,67.77
2019-05-25T00:12:45.625Z,67.93
2019-05-25T00:15:17.227Z,67.33
2019-05-25T00:17:48.729Z,67.36
2019-05-25T00:20:20.229Z,68.29
2019-05-25T00:22:51.798Z,68.79
2019-05-25T00:25:23.301Z,68.65
2019-05-25T00:27:54.701Z,68.67
2019-05-25T00:30:26.479Z,68.65
2019-05-25T00:32:58.603Z,68.52
2019-05-25T00:35:30.227Z,68.42
2019-05-25T00:38:01.800Z,68.41
2019-05-25T00:40:33.339Z,68.47
2019-05-25T00:43:05.069Z,67.54
2019-05-25T00:45:36.516Z,67.53
2019-05-25T00:48:07.948Z,67.33
2019-05-25T00:50:39.454Z,69.01
2019-05-25T00:53:10.942Z,67.84
2019-05-25T00:55:42.627Z,66.94
2019-05-25T00:58:14.168Z,67.31
2019-05-25T01:00:45.659Z,68.35
2019-05-25T01:03:17.072Z,67.44
2019-05-25T01:05:48.670Z,67.28
2019-05-25T01:08:20.164Z,69.34
2019-05-25T01:10:51.802Z,68.70
2019-05-25T01:13:23.282Z,68.41
2019-05-25T01:15:54.806Z,69.14
2019-05-25T01:18:26.578Z,68.98
2019-05-25T01:20:58.112Z,68.84
2019-05-25T01:23:29.601Z,68.01
2019-05-25T01:26:01.141Z,69.42
2019-05-25T01:28:32.640Z,69.05
2019-05-25T01:31:04.470Z,67.78
2019-05-25T01:33:36.033Z,68.64
2019-05-25T01:36:07.754Z,68.81
2019-05-25T01:38:39.884Z,68.05
2019-05-25T01:41:11.566Z,68.45
2019-05-25T01:43:43.002Z,67.34
2019-05-25T01:46:14.534Z,68.03
2019-05-25T01:48:46.396Z,66.76
2019-05-25T01:51:18.094Z,66.72
2019-05-25T01:53:49.885Z,66.63
2019-05-25T01:56:21.437Z,66.02
2019-05-25T01:58:53.048Z,65.87
2019-05-25T02:01:24.522Z,65.69
2019-05-25T02:03:56.656Z,65.54
2019-05-25T02:06:28.093Z,65.18
2019-05-25T02:09:01.083Z,65.07
2019-05-25T02:11:33.147Z,65.18
2019-05-25T02:14:04.908Z,65.89
2019-05-25T02:16:36.572Z,66.49
2019-05-25T02:19:08.262Z,66.14
2019-05-25T02:21:39.671Z,65.62
2019-05-25T02:24:11.163Z,65.84
2019-05-25T02:26:42.704Z,66.19
2019-05-25T02:29:14.196Z,65.62
2019-05-25T02:31:45.698Z,65.79
2019-05-25T02:34:17.446Z,66.15
2019-05-25T02:36:48.845Z,65.86
2019-05-25T02:39:20.610Z,66.60
2019-05-25T02:41:52.169Z,68.61
2019-05-25T02:44:23.698Z,67.11
2019-05-25T02:46:55.141Z,66.90
2019-05-25T02:49:26.715Z,66.54
2019-05-25T02:51:58.444Z,66.68
2019-05-25T02:54:31.010Z,66.86
2019-05-25T02:57:02.712Z,67.90
2019-05-25T02:59:34.242Z,68.51
2019-05-25T03:02:05.803Z,69.13
2019-05-25T03:04:37.360Z,70.23
2019-05-25T03:07:09.637Z,70.20
2019-05-25T03:09:42.575Z,69.41
2019-05-25T03:12:14.624Z,68.67
2019-05-25T03:14:46.198Z,68.73
2019-05-25T03:17:18.111Z,69.14
2019-05-25T03:19:49.826Z,70.33
2019-05-25T03:22:21.356Z,70.50
2019-05-25T03:24:52.902Z,71.30
2019-05-25T03:27:24.625Z,71.58
2019-05-25T03:29:56.155Z,70.42
2019-05-25T03:32:27.736Z,70.61
2019-05-25T03:34:59.627Z,71.72
2019-05-25T03:37:31.307Z,71.96
2019-05-25T03:40:02.884Z,71.48
2019-05-25T03:42:36.532Z,71.88
2019-05-25T03:45:08.587Z,72.62
2019-05-25T03:47:40.183Z,71.73
2019-05-25T03:50:12.945Z,71.68
2019-05-25T03:52:44.502Z,71.49
2019-05-25T03:55:16.521Z,71.20
2019-05-25T03:57:48.296Z,70.15
2019-05-25T04:00:34.016Z,70.55
2019-05-25T04:03:06.361Z,71.65
2019-05-25T04:05:37.947Z,71.80
2019-05-25T04:08:09.735Z,71.34
2019-05-25T04:10:41.262Z,69.89
2019-05-25T04:13:13.066Z,69.35
2019-05-25T04:15:44.784Z,69.00
2019-05-25T04:18:17.127Z,68.62
2019-05-25T04:20:48.724Z,68.30
2019-05-25T04:23:21.819Z,68.24
2019-05-25T04:25:53.324Z,67.81
2019-05-25T04:28:24.887Z,67.41
2019-05-25T04:30:56.386Z,67.20
2019-05-25T04:33:27.856Z,66.52
2019-05-25T04:35:59.621Z,66.32
2019-05-25T04:38:31.242Z,65.96
2019-05-25T04:41:02.691Z,65.87
2019-05-25T04:43:34.229Z,66.06
2019-05-25T04:46:06.072Z,65.55
2019-05-25T04:48:39.691Z,65.59
2019-05-25T04:51:11.580Z,66.61
2019-05-25T04:53:43.408Z,66.77
2019-05-25T04:56:14.940Z,66.79
2019-05-25T04:58:46.674Z,66.38
2019-05-25T05:01:22.415Z,66.74
2019-05-25T05:03:52.531Z,68.21
2019-05-25T05:06:24.200Z,68.03
2019-05-25T05:08:55.752Z,67.74
2019-05-25T05:11:27.592Z,67.26
2019-05-25T05:13:59.186Z,67.02
2019-05-25T05:16:30.782Z,66.51
2019-05-25T05:19:02.380Z,66.06
2019-05-25T05:21:35.165Z,65.61
2019-05-25T05:24:06.680Z,65.19
2019-05-25T05:26:52.829Z,65.36
2019-05-25T05:29:11.557Z,64.88
2019-05-25T05:31:44.713Z,64.56
2019-05-25T05:34:16.119Z,64.30
2019-05-25T05:36:49.257Z,64.86
2019-05-25T05:39:21.547Z,64.88
2019-05-25T05:41:55.973Z,64.55
2019-05-25T05:44:29.662Z,64.26
2019-05-25T05:47:03.315Z,64.39
2019-05-25T05:49:35.027Z,64.09
2019-05-25T05:52:06.702Z,64.42
2019-05-25T05:54:39.898Z,64.77
2019-05-25T05:57:12.804Z,63.80
2019-05-25T05:59:45.557Z,63.96
2019-05-25T06:02:19.125Z,64.50
2019-05-25T06:04:50.730Z,63.88
2019-05-25T06:07:22.498Z,64.19
2019-05-25T06:09:53.975Z,64.27
2019-05-25T06:12:25.501Z,63.30
2019-05-25T06:14:56.984Z,63.78
2019-05-25T06:17:28.591Z,64.02
2019-05-25T06:20:00.365Z,64.24
2019-05-25T06:22:31.913Z,63.93
2019-05-25T06:25:05.104Z,63.44
2019-05-25T06:27:36.737Z,63.60
2019-05-25T06:30:09.421Z,63.46
2019-05-25T06:32:40.931Z,63.14
2019-05-25T06:35:13.302Z,62.92
2019-05-25T06:37:44.820Z,62.93
2019-05-25T06:40:16.780Z,63.43
2019-05-25T06:42:48.715Z,62.77
2019-05-25T06:45:21.482Z,62.71
2019-05-25T06:47:52.979Z,61.98
2019-05-25T06:50:24.504Z,62.38
2019-05-25T06:52:58.022Z,62.75
2019-05-25T06:55:29.416Z,63.08
2019-05-25T06:58:00.972Z,63.49
2019-05-25T07:00:32.798Z,63.13
2019-05-25T07:03:04.307Z,63.21
2019-05-25T07:05:36.038Z,63.31
2019-05-25T07:08:08.211Z,63.38
2019-05-25T07:10:39.856Z,63.60
2019-05-25T07:13:11.315Z,64.02
2019-05-25T07:15:44.714Z,65.48
2019-05-25T07:18:16.307Z,64.19
2019-05-25T07:20:49.022Z,65.35
2019-05-25T07:23:20.579Z,65.81
2019-05-25T07:25:52.199Z,66.82
2019-05-25T07:28:23.708Z,68.17
2019-05-25T07:30:55.225Z,67.80
2019-05-25T07:33:29.104Z,67.17
2019-05-25T07:36:07.340Z,67.83
2019-05-25T07:38:36.005Z,67.68
2019-05-25T07:41:07.441Z,67.44
2019-05-25T07:43:39.238Z,66.00
2019-05-25T07:46:10.938Z,66.20
2019-05-25T07:48:42.648Z,66.50
2019-05-25T07:51:14.208Z,65.97
2019-05-25T07:53:46.120Z,65.04
2019-05-25T07:56:17.636Z,64.88
2019-05-25T07:58:49.256Z,64.64
2019-05-25T08:01:20.770Z,64.07
2019-05-25T08:03:53.726Z,64.69
2019-05-25T08:06:25.232Z,64.01
2019-05-25T08:08:56.783Z,65.28
2019-05-25T08:11:29.924Z,63.24
2019-05-25T08:14:01.494Z,62.24
2019-05-25T08:16:33.058Z,62.41
2019-05-25T08:19:04.611Z,62.25
2019-05-25T08:21:36.767Z,61.94
2019-05-25T08:24:08.307Z,61.74
2019-05-25T08:26:39.911Z,62.11
2019-05-25T08:29:11.834Z,60.88
2019-05-25T08:31:43.308Z,60.92
2019-05-25T08:34:14.852Z,61.37
2019-05-25T08:36:46.852Z,60.81
2019-05-25T08:39:18.749Z,61.21
2019-05-25T08:41:50.345Z,61.91
2019-05-25T08:44:24.751Z,61.47
2019-05-25T08:46:56.301Z,61.38
2019-05-25T08:49:27.872Z,60.48
2019-05-25T08:52:04.150Z,60.50
2019-05-25T08:54:34.681Z,61.22
2019-05-25T08:57:06.257Z,60.96
2019-05-25T08:59:37.962Z,61.06
2019-05-25T09:02:09.466Z,62.21
2019-05-25T09:04:41.129Z,61.20
2019-05-25T09:07:12.602Z,60.91
2019-05-25T09:09:44.740Z,60.31
2019-05-25T09:12:16.520Z,60.37
2019-05-25T09:14:48.222Z,59.83
2019-05-25T09:17:20.015Z,59.06
2019-05-25T09:19:53.216Z,61.53
2019-05-25T09:22:24.749Z,61.89
2019-05-25T09:24:56.270Z,62.52
2019-05-25T09:27:27.736Z,60.54
2019-05-25T09:29:59.452Z,60.14
2019-05-25T09:32:31.014Z,60.04
2019-05-25T09:35:02.546Z,59.72
2019-05-25T09:37:34.247Z,59.27
2019-05-25T09:40:06.744Z,59.00
2019-05-25T09:42:39.125Z,58.64
2019-05-25T09:45:14.168Z,58.28
2019-05-25T09:47:46.107Z,58.22
2019-05-25T09:50:18.289Z,58.72
2019-05-25T09:52:50.827Z,59.09
2019-05-25T09:55:24.464Z,58.35
2019-05-25T09:57:56.030Z,59.20
2019-05-25T10:00:28.161Z,58.20
2019-05-25T10:02:59.867Z,57.62
2019-05-25T10:05:31.445Z,58.16
2019-05-25T10:08:02.898Z,59.58
2019-05-25T10:10:34.436Z,59.78
2019-05-25T10:13:06.366Z,60.35
2019-05-25T10:15:38.067Z,61.29
2019-05-25T10:18:09.592Z,61.28
2019-05-25T10:20:41.433Z,60.53
2019-05-25T10:23:12.971Z,58.77
2019-05-25T10:25:44.511Z,59.35
2019-05-25T10:28:17.172Z,57.54
2019-05-25T10:30:49.766Z,58.26
2019-05-25T10:33:21.938Z,57.92
2019-05-25T10:35:53.613Z,58.13
2019-05-25T10:38:25.106Z,57.44
2019-05-25T10:40:58.631Z,56.81
2019-05-25T10:43:30.125Z,57.06
2019-05-25T10:46:01.640Z,57.87
2019-05-25T10:48:33.280Z,57.31
2019-05-25T10:51:04.826Z,56.63
2019-05-25T10:53:36.531Z,54.73
2019-05-25T10:56:08.086Z,55.24
2019-05-25T10:58:39.938Z,54.97
2019-05-25T11:01:12.491Z,54.17
2019-05-25T11:03:44.061Z,54.03
2019-05-25T11:06:15.550Z,54.85
2019-05-25T11:08:46.966Z,55.37
2019-05-25T11:11:21.687Z,57.26
2019-05-25T11:13:53.125Z,57.71
2019-05-25T11:16:25.947Z,58.63
2019-05-25T11:18:57.367Z,57.69
2019-05-25T11:21:29.052Z,57.39
2019-05-25T11:24:00.563Z,56.11
2019-05-25T11:26:32.089Z,55.71
2019-05-25T11:29:04.906Z,56.72
2019-05-25T11:31:36.732Z,55.71
2019-05-25T11:34:08.387Z,56.09
2019-05-25T11:36:39.947Z,53.92
2019-05-25T11:39:11.463Z,52.70
2019-05-25T11:41:43.022Z,51.97
2019-05-25T11:44:14.767Z,52.09
2019-05-25T11:46:46.319Z,52.14
2019-05-25T11:49:22.359Z,53.98
2019-05-25T11:51:51.662Z,52.91
2019-05-25T11:54:23.194Z,53.68
2019-05-25T11:56:55.312Z,52.86
2019-05-25T11:59:26.777Z,51.49
2019-05-25T12:01:58.357Z,53.29
2019-05-25T12:04:29.872Z,51.63
2019-05-25T12:07:01.514Z,51.83
2019-05-25T12:09:33.067Z,50.11
2019-05-25T12:12:04.604Z,50.66
2019-05-25T12:14:36.132Z,50.33
2019-05-25T12:17:07.665Z,50.19
2019-05-25T12:19:39.173Z,50.76
2019-05-25T12:22:10.729Z,52.82
2019-05-25T12:24:42.508Z,54.24
2019-05-25T12:27:14.166Z,55.49
2019-05-25T12:29:45.639Z,56.23
2019-05-25T12:32:17.605Z,56.72
2019-05-25T12:34:49.186Z,57.79
2019-05-25T12:37:20.818Z,59.10
2019-05-25T12:39:52.380Z,57.24
2019-05-25T12:42:24.616Z,57.62
2019-05-25T12:44:56.296Z,58.56
2019-05-25T12:47:29.467Z,59.03
2019-05-25T12:50:01.042Z,58.48
2019-05-25T12:52:35.511Z,57.77
2019-05-25T12:55:08.267Z,56.84
2019-05-25T12:57:40.197Z,57.57
2019-05-25T13:00:16.070Z,57.50
2019-05-25T13:02:45.924Z,57.29
2019-05-25T13:05:32.653Z,57.37
2019-05-25T13:07:50.860Z,58.75
2019-05-25T13:10:23.026Z,59.26
2019-05-25T13:12:57.845Z,57.74
2019-05-25T13:15:29.331Z,56.74
2019-05-25T13:18:01.116Z,56.97
2019-05-25T13:20:32.630Z,56.76
2019-05-25T13:23:05.558Z,56.62
2019-05-25T13:25:37.971Z,57.45
2019-05-25T13:28:12.618Z,56.38
2019-05-25T13:30:44.150Z,56.42
2019-05-25T13:33:15.981Z,55.72
2019-05-25T13:35:48.705Z,55.58
2019-05-25T13:38:20.223Z,56.27
2019-05-25T13:40:51.977Z,55.62
2019-05-25T13:43:23.717Z,56.20
2019-05-25T13:45:55.294Z,57.37
2019-05-25T13:48:26.929Z,55.96
2019-05-25T13:50:58.450Z,54.91
2019-05-25T13:53:32.940Z,54.31
2019-05-25T13:56:03.411Z,55.59
2019-05-25T13:58:35.147Z,56.71
2019-05-25T14:01:08.671Z,54.89
2019-05-25T14:03:40.295Z,54.20
2019-05-25T14:06:11.997Z,54.63
2019-05-25T14:08:43.498Z,54.04
2019-05-25T14:11:15.046Z,53.37
2019-05-25T14:13:46.536Z,52.84
2019-05-25T14:16:17.969Z,54.58
2019-05-25T14:18:49.803Z,51.83
2019-05-25T14:21:21.525Z,52.90
2019-05-25T14:23:55.004Z,51.18
2019-05-25T14:26:27.044Z,50.84
2019-05-25T14:28:58.528Z,49.91
2019-05-25T14:31:44.462Z,50.56
2019-05-25T14:34:04.565Z,49.46
2019-05-25T14:36:36.928Z,51.83
2019-05-25T14:39:10.778Z,52.81
2019-05-25T14:41:42.331Z,51.00
2019-05-25T14:44:13.799Z,50.48
2019-05-25T14:46:45.415Z,52.68
2019-05-25T14:49:17.020Z,53.27
2019-05-25T14:51:48.605Z,52.80
2019-05-25T14:54:20.466Z,53.26
2019-05-25T14:56:52.020Z,51.40
2019-05-25T14:59:23.654Z,51.34
2019-05-25T15:02:02.329Z,51.66
2019-05-25T15:04:28.783Z,50.33
2019-05-25T15:07:00.402Z,51.18
2019-05-25T15:09:31.962Z,51.87
2019-05-25T15:12:03.550Z,51.74
2019-05-25T15:14:35.090Z,51.91
2019-05-25T15:17:07.083Z,51.81
2019-05-25T15:19:38.622Z,51.46
2019-05-25T15:22:10.741Z,52.51
2019-05-25T15:24:42.593Z,50.97
2019-05-25T15:27:14.177Z,51.36
2019-05-25T15:29:45.948Z,52.04
2019-05-25T15:32:20.438Z,52.92
2019-05-25T15:34:50.828Z,53.44
2019-05-25T15:37:22.382Z,52.57
2019-05-25T15:39:57.326Z,52.46
2019-05-25T15:42:28.908Z,52.18
2019-05-25T15:45:03.261Z,52.25
2019-05-25T15:47:35.940Z,49.97
2019-05-25T15:50:08.878Z,51.03
2019-05-25T15:52:42.232Z,50.21
2019-05-25T15:55:14.268Z,51.33
2019-05-25T15:57:45.897Z,51.20
2019-05-25T16:00:18.735Z,50.56
2019-05-25T16:02:51.145Z,50.33
2019-05-25T16:05:22.817Z,49.04
2019-05-25T16:07:54.895Z,50.84
2019-05-25T16:10:27.070Z,49.79
2019-05-25T16:12:58.816Z,50.04
2019-05-25T16:15:30.659Z,50.12
2019-05-25T16:18:02.190Z,49.42
2019-05-25T16:20:33.817Z,50.88
2019-05-25T16:23:05.355Z,51.53
2019-05-25T16:25:36.920Z,50.28
2019-05-25T16:28:08.479Z,50.17
2019-05-25T16:30:40.065Z,50.40
2019-05-25T16:33:14.089Z,49.68
2019-05-25T16:35:44.920Z,50.34
2019-05-25T16:38:16.560Z,50.78
2019-05-25T16:40:49.314Z,52.44
2019-05-25T16:43:20.956Z,51.22
2019-05-25T16:45:52.676Z,52.27
2019-05-25T16:48:24.597Z,51.50
2019-05-25T16:50:57.862Z,51.04
2019-05-25T16:53:30.242Z,52.08
2019-05-25T16:56:02.067Z,52.09
2019-05-25T16:58:33.655Z,53.57
2019-05-25T17:01:05.239Z,53.45
2019-05-25T17:03:37.315Z,54.13
2019-05-25T17:06:08.829Z,53.32
2019-05-25T17:08:41.815Z,54.25
2019-05-25T17:11:15.030Z,54.95
2019-05-25T17:13:46.967Z,54.86
2019-05-25T17:16:18.551Z,55.09
2019-05-25T17:18:52.088Z,53.74
2019-05-25T17:21:25.309Z,55.26
2019-05-25T17:23:56.900Z,56.59
2019-05-25T17:26:28.507Z,55.85
2019-05-25T17:29:00.766Z,55.96
2019-05-25T17:31:32.421Z,56.01
2019-05-25T17:34:03.975Z,56.11
2019-05-25T17:36:35.577Z,56.00
2019-05-25T17:39:08.693Z,55.50
2019-05-25T17:41:40.374Z,56.17
2019-05-25T17:44:11.857Z,56.31
2019-05-25T17:46:43.418Z,56.25
2019-05-25T17:49:14.906Z,56.97
2019-05-25T17:51:46.599Z,55.89
2019-05-25T17:54:18.153Z,55.20
2019-05-25T17:56:49.678Z,54.95
2019-05-25T17:59:21.174Z,55.23
2019-05-25T18:01:52.715Z,54.50
2019-05-25T18:04:25.300Z,54.87
2019-05-25T18:06:56.976Z,54.60
2019-05-25T18:09:28.486Z,54.25
2019-05-25T18:11:59.971Z,54.41
2019-05-25T18:14:31.723Z,52.80
2019-05-25T18:17:03.453Z,53.58
2019-05-25T18:19:34.982Z,54.07
2019-05-25T18:22:06.569Z,53.08
2019-05-25T18:24:38.148Z,53.61
2019-05-25T18:27:09.669Z,54.51
2019-05-25T18:29:42.454Z,54.54
2019-05-25T18:32:14.239Z,54.32
2019-05-25T18:34:45.894Z,54.25
2019-05-25T18:37:17.441Z,54.18
2019-05-25T18:39:49.101Z,53.76
2019-05-25T18:42:20.691Z,52.84
2019-05-25T18:44:52.463Z,53.15
2019-05-25T18:47:23.903Z,51.52
2019-05-25T18:49:55.492Z,52.32
2019-05-25T18:52:27.236Z,51.39
2019-05-25T18:54:59.638Z,51.34
2019-05-25T18:57:31.371Z,53.15
2019-05-25T19:00:03.857Z,53.22
2019-05-25T19:02:36.536Z,52.15
2019-05-25T19:05:10.175Z,53.90
2019-05-25T19:07:42.006Z,53.87
2019-05-25T19:10:14.092Z,54.54
2019-05-25T19:12:45.641Z,54.61
2019-05-25T19:15:18.457Z,54.81
2019-05-25T19:17:50.089Z,55.29
2019-05-25T19:20:21.878Z,54.63
2019-05-25T19:22:53.547Z,55.40
2019-05-25T19:25:25.310Z,55.38
2019-05-25T19:27:56.862Z,56.74
2019-05-25T19:30:28.378Z,57.77
2019-05-25T19:32:59.911Z,57.26
2019-05-25T19:35:31.422Z,57.20
2019-05-25T19:38:03.063Z,59.12
2019-05-25T19:40:34.792Z,60.78
2019-05-25T19:43:06.328Z,61.41
2019-05-25T19:45:37.903Z,62.52
2019-05-25T19:48:09.450Z,62.09
2019-05-25T19:50:41.024Z,63.50
2019-05-25T19:53:12.540Z,63.18
2019-05-25T19:55:44.095Z,63.16
2019-05-25T19:58:15.793Z,63.84
2019-05-25T20:00:47.340Z,64.50
2019-05-25T20:03:18.877Z,65.20
2019-05-25T20:05:51.589Z,65.49
2019-05-25T20:08:23.236Z,65.42
2019-05-25T20:10:55.821Z,65.03
2019-05-25T20:13:27.856Z,65.18
2019-05-25T20:15:59.614Z,65.51
2019-05-25T20:18:31.129Z,66.15
2019-05-25T20:21:02.579Z,65.88
2019-05-25T20:23:33.992Z,65.07
2019-05-25T20:26:05.748Z,65.36
2019-05-25T20:28:37.175Z,67.14
2019-05-25T20:31:10.195Z,67.56
2019-05-25T20:33:41.658Z,67.02
2019-05-25T20:36:16.014Z,66.76
2019-05-25T20:38:47.496Z,66.40
2019-05-25T20:41:19.088Z,66.27
2019-05-25T20:43:52.885Z,66.39
2019-05-25T20:46:24.455Z,66.23
2019-05-25T20:48:56.126Z,65.03
2019-05-25T20:51:27.656Z,65.06
2019-05-25T20:53:59.444Z,64.53
2019-05-25T20:56:31.525Z,63.82
2019-05-25T20:59:03.042Z,63.52
2019-05-25T21:01:34.670Z,63.72
2019-05-25T21:04:06.450Z,64.08
2019-05-25T21:06:38.146Z,64.29
2019-05-25T21:09:10.005Z,64.49
2019-05-25T21:11:41.572Z,63.90
2019-05-25T21:14:13.099Z,63.85
2019-05-25T21:16:46.225Z,64.20
2019-05-25T21:19:17.840Z,63.87
2019-05-25T21:21:49.405Z,64.83
2019-05-25T21:24:21.261Z,65.60
2019-05-25T21:26:52.814Z,64.65
2019-05-25T21:29:24.918Z,64.62
2019-05-25T21:31:56.601Z,64.51
2019-05-25T21:34:28.064Z,64.66
2019-05-25T21:36:59.494Z,65.67
2019-05-25T21:39:31.011Z,66.87
2019-05-25T21:42:02.846Z,67.67
2019-05-25T21:44:34.373Z,68.34
2019-05-25T21:47:05.907Z,67.95
2019-05-25T21:49:37.774Z,68.73
2019-05-25T21:52:09.346Z,69.56
2019-05-25T21:54:40.936Z,69.03
2019-05-25T21:57:12.741Z,68.52
2019-05-25T21:59:44.437Z,67.21
2019-05-25T22:02:15.969Z,66.75
2019-05-25T22:04:47.780Z,66.58
2019-05-25T22:07:19.381Z,66.89
2019-05-25T22:09:50.944Z,67.43
2019-05-25T22:12:22.621Z,68.57
2019-05-25T22:14:54.554Z,68.67
2019-05-25T22:17:26.442Z,70.07
2019-05-25T22:19:58.056Z,70.70
2019-05-25T22:22:29.613Z,70.80
2019-05-25T22:25:01.116Z,69.50
2019-05-25T22:27:32.688Z,69.51
2019-05-25T22:30:04.758Z,70.33
2019-05-25T22:32:36.340Z,69.86
2019-05-25T22:35:08.556Z,70.44
2019-05-25T22:37:40.913Z,71.56
2019-05-25T22:40:12.427Z,71.63
2019-05-25T22:42:44.024Z,70.43
2019-05-25T22:45:15.604Z,70.32
2019-05-25T22:47:47.367Z,70.69
2019-05-25T22:50:20.444Z,70.64
2019-05-25T22:52:51.985Z,70.83
2019-05-25T22:55:23.577Z,70.88
2019-05-25T22:57:56.258Z,71.59
2019-05-25T23:00:27.837Z,71.89
2019-05-25T23:03:00.180Z,72.03
2019-05-25T23:05:31.671Z,71.86
2019-05-25T23:08:04.397Z,72.01
2019-05-25T23:10:35.798Z,72.41
2019-05-25T23:13:07.457Z,72.80
2019-05-25T23:15:38.967Z,72.45
2019-05-25T23:18:10.555Z,72.69
2019-05-25T23:20:42.256Z,73.26
2019-05-25T23:23:15.017Z,73.26
2019-05-25T23:25:46.601Z,72.99
2019-05-25T23:28:18.108Z,73.31
2019-05-25T23:30:49.619Z,74.01
2019-05-25T23:33:21.158Z,74.25
2019-05-25T23:35:52.651Z,73.87
2019-05-25T23:38:26.303Z,73.50
2019-05-25T23:40:58.084Z,73.29
2019-05-25T23:43:29.632Z,73.04
2019-05-25T23:46:01.136Z,73.75
2019-05-25T23:48:33.386Z,73.81
2019-05-25T23:51:04.925Z,73.61
2019-05-25T23:53:36.432Z,73.31
2019-05-25T23:56:07.943Z,72.49
2019-05-25T23:58:42.523Z,72.50
